METAR / TAF

Buochs LSZC 220950Z AUTO VRB02KT 9999 FEW075 BKN130 20/14 Q1016

TAF LSZC 201950Z 2019/2024 CNL


Alpnach AFB LSMA 220950Z AUTO VRB01KT 9999NDV FEW077 20/14 Q1016

TAF LSMA 220925Z 2210/2316 05003KT 9999 FEW075 PROB40 TEMPO 2221/2303 SHRA SCT060TCU PROB30 2222/2303 22015G30KT 4500 TSRA SCT050CB PROB40 TEMPO 2307/2310 04010KT CAVOK TEMPO 2310/2316 22012G25KT SHRA SCT055TCU PROB40 TEMPO 2311/2316 22015G35KT 4500 TSRA SCT050CB


Emmen AFB LSME 220920Z VRB02KT 9999 SCT076 BKN140 19/13 Q1017 RMK BLU

TAF LSME 220925Z 2210/2316 VRB02KT 9999 BKN070 PROB40 TEMPO 2221/2303 SHRA SCT060TCU PROB30 2222/2303 22015G30KT 4500 TSRA SCT050CB PROB40 TEMPO 2307/2310 CAVOK TEMPO 2310/2316 22012G25KT SHRA SCT055TCU PROB40 TEMPO 2311/2316 22015G35KT 4500 TSRA SCT055CB


Bern LSZB 220950Z VRB02KT CAVOK 22/14 Q1015 NOSIG

TAF LSZB 220825Z 2209/2218 30005KT 9999 SCT140 TEMPO 2211/2218 CAVOK


Grenchen LSZG 220950Z 08005KT CAVOK 19/11 Q1016 NOSIG

TAF LSZG 220825Z 2209/2218 06007KT 9999 BKN060


Zurich LSZH 220950Z VRB02KT CAVOK 19/13 Q1016 NOSIG

TAF LSZH 220825Z 2209/2315 33005KT 9999 FEW060 SCT070 TX23/2215Z TN15/2304Z TX26/2315Z BECMG 2211/2214 05005KT BECMG 2219/2222 VRB02KT PROB40 TEMPO 2224/2303 SHRA SCT060TCU PROB30 TEMPO 2224/2303 4500 TSRA SCT050CB PROB40 TEMPO 2307/2310 CAVOK BECMG 2309/2311 25008KT SCT060TCU TEMPO 2311/2315 SHRA PROB40 TEMPO 2312/2315 26015G30KT TSRA SCT055CB


Bale LFSB 221000Z VRB04KT CAVOK 22/12 Q1015 NOSIG

TAF LFSB 220500Z 2206/2306 VRB04KT CAVOK TEMPO 2217/2221 FEW080CB PROB40 TEMPO 2300/2306 25015G25KT FEW100CB


Les Eplatures LSGC 220950Z 20006KT CAVOK 22/13 Q1017

TAF LSGC 220825Z 2209/2218 VRB02KT CAVOK BECMG 2209/2211 9999 FEW040


Geneva LSGG 220950Z 07006KT CAVOK 22/14 Q1015 NOSIG

TAF LSGG 220825Z 2209/2315 VRB02KT CAVOK TX30/2215Z TN17/2306Z TX24/2315Z BECMG 2209/2211 05007KT BECMG 2216/2218 9999 SCT060 PROB30 TEMPO 2220/2224 22015KT TSRA SCT060CB BECMG 2300/2303 VRB02KT


Sion LSGS 220950Z 25005KT 160V290 CAVOK 26/11 Q1014

TAF LSGS 220825Z 2209/2218 VRB02KT CAVOK BECMG 2210/2212 25012KT 9999 FEW100


Payerne AFB LSMP 220950Z 34004KT 290V030 CAVOK 20/12 Q1016 RMK BLU

TAF LSMP 220925Z 2210/2316 28005KT CAVOK BECMG 2218/2220 9999 SCT060 PROB30 TEMPO 2221/2224 28015KT TSRA FEW060CB TEMPO 2312/2316 TSRA FEW060CB


Lugano LSZA 220950Z 19006KT CAVOK 25/17 Q1013 NOSIG

TAF LSZA 220825Z 2209/2218 20008KT CAVOK BECMG 2209/2212 9999 FEW070 PROB40 TEMPO 2215/2218 SHRA SCT060TCU PROB30 TEMPO 2216/2218 20015KT TSRA SCT050CB


Locarno LSZL 220950Z AUTO 25006KT 9999NDV NCD 24/15 Q1013

TAF LSZL 220525Z 2206/2215 VRB02KT CAVOK BECMG 2209/2210 25006KT


St. Gallen LSZR 220950Z 29005KT 260V320 9999 FEW060 17/11 Q1016 NOSIG RMK D

TAF LSZR 220825Z 2209/2218 27007KT CAVOK TEMPO 2210/2218 9999 SCT070


Samedan LSZS 220950Z 22009KT 9999 FEW070 20/06 Q1019 RMK I TL170

TAF LSZS 220825Z 2209/2218 VRB02KT CAVOK TX21/2215Z BECMG 2209/2210 22008KT 9999 FEW060

Radar

Föhn diagram

From an air pressure difference of approx. 4 hPa (dashed line) between the northern and southern Alps, Föhn can occur. The higher the pressure difference, the more violent the Föhn!

Forecast

Privacy Settings
We use cookies to enhance your experience while using our website. If you are using our Services via a browser you can restrict, block or remove cookies through your web browser settings. We also use content and scripts from third parties that may use tracking technologies. You can selectively provide your consent below to allow such third party embeds. For complete information about the cookies we use, data we collect and how we process them, please check our Privacy Policy
Youtube
Consent to display content from Youtube
Vimeo
Consent to display content from Vimeo
Google Maps
Consent to display content from Google